sensor_id;sensor_type;location;lat;lon;timestamp;P1;durP1;ratioP1;P2;durP2;ratioP2
4078;SDS011;2054;47.858;11.156;2023-08-07T02:45:38;2.28;;;1.30;;
4078;SDS011;2054;47.858;11.156;2023-08-07T02:48:05;2.63;;;1.20;;
4078;SDS011;2054;47.858;11.156;2023-08-07T02:50:32;2.63;;;1.67;;
4078;SDS011;2054;47.858;11.156;2023-08-07T02:52:59;1.35;;;1.13;;
4078;SDS011;2054;47.858;11.156;2023-08-07T02:55:26;2.17;;;1.17;;
4078;SDS011;2054;47.858;11.156;2023-08-07T02:57:53;2.58;;;1.33;;
4078;SDS011;2054;47.858;11.156;2023-08-07T03:00:20;3.35;;;1.20;;
4078;SDS011;2054;47.858;11.156;2023-08-07T03:02:48;3.08;;;1.38;;
4078;SDS011;2054;47.858;11.156;2023-08-07T03:05:15;1.88;;;1.20;;
4078;SDS011;2054;47.858;11.156;2023-08-07T03:07:42;2.90;;;1.30;;
4078;SDS011;2054;47.858;11.156;2023-08-07T03:10:09;3.03;;;1.40;;
4078;SDS011;2054;47.858;11.156;2023-08-07T03:12:36;1.60;;;1.40;;
4078;SDS011;2054;47.858;11.156;2023-08-07T03:15:04;2.42;;;1.42;;
4078;SDS011;2054;47.858;11.156;2023-08-07T03:17:31;1.85;;;1.50;;
4078;SDS011;2054;47.858;11.156;2023-08-07T03:20:00;4.13;;;1.42;;
4078;SDS011;2054;47.858;11.156;2023-08-07T03:22:28;3.42;;;1.48;;
4078;SDS011;2054;47.858;11.156;2023-08-07T03:24:55;2.28;;;1.45;;
4078;SDS011;2054;47.858;11.156;2023-08-07T03:27:22;3.20;;;1.65;;
4078;SDS011;2054;47.858;11.156;2023-08-07T03:29:49;2.78;;;1.58;;
4078;SDS011;2054;47.858;11.156;2023-08-07T03:32:16;5.63;;;1.63;;
4078;SDS011;2054;47.858;11.156;2023-08-07T03:34:43;2.47;;;1.40;;
4078;SDS011;2054;47.858;11.156;2023-08-07T03:37:12;3.45;;;1.65;;
4078;SDS011;2054;47.858;11.156;2023-08-07T03:39:39;1.80;;;1.55;;
4078;SDS011;2054;47.858;11.156;2023-08-07T03:42:06;2.40;;;1.55;;
4078;SDS011;2054;47.858;11.156;2023-08-07T03:44:33;3.40;;;1.38;;
4078;SDS011;2054;47.858;11.156;2023-08-07T03:47:00;1.70;;;1.60;;
4078;SDS011;2054;47.858;11.156;2023-08-07T03:49:27;2.53;;;1.40;;
4078;SDS011;2054;47.858;11.156;2023-08-07T03:51:54;2.58;;;1.65;;
4078;SDS011;2054;47.858;11.156;2023-08-07T03:54:22;1.67;;;1.42;;
4078;SDS011;2054;47.858;11.156;2023-08-07T03:56:49;5.50;;;2.00;;
4078;SDS011;2054;47.858;11.156;2023-08-07T03:59:16;2.25;;;1.83;;
4078;SDS011;2054;47.858;11.156;2023-08-07T04:01:43;2.70;;;1.92;;
4078;SDS011;2054;47.858;11.156;2023-08-07T04:04:10;3.60;;;1.58;;
4078;SDS011;2054;47.858;11.156;2023-08-07T04:06:37;1.90;;;1.55;;
4078;SDS011;2054;47.858;11.156;2023-08-07T04:09:04;2.78;;;1.80;;
4078;SDS011;2054;47.858;11.156;2023-08-07T04:11:32;3.53;;;1.63;;
4078;SDS011;2054;47.858;11.156;2023-08-07T04:13:59;2.78;;;1.85;;
4078;SDS011;2054;47.858;11.156;2023-08-07T04:16:26;2.85;;;1.70;;
4078;SDS011;2054;47.858;11.156;2023-08-07T04:18:53;3.28;;;1.60;;
4078;SDS011;2054;47.858;11.156;2023-08-07T04:21:20;3.30;;;1.90;;
4078;SDS011;2054;47.858;11.156;2023-08-07T04:23:48;3.45;;;1.50;;
4078;SDS011;2054;47.858;11.156;2023-08-07T04:26:15;1.73;;;1.45;;
4078;SDS011;2054;47.858;11.156;2023-08-07T04:28:43;2.08;;;1.60;;
4078;SDS011;2054;47.858;11.156;2023-08-07T04:31:10;2.85;;;1.48;;
4078;SDS011;2054;47.858;11.156;2023-08-07T04:33:37;2.42;;;1.42;;
4078;SDS011;2054;47.858;11.156;2023-08-07T04:36:04;3.33;;;1.80;;
4078;SDS011;2054;47.858;11.156;2023-08-07T04:38:32;5.38;;;2.10;;
4078;SDS011;2054;47.858;11.156;2023-08-07T04:40:58;2.28;;;1.50;;
4078;SDS011;2054;47.858;11.156;2023-08-07T04:43:25;4.32;;;1.90;;
4078;SDS011;2054;47.858;11.156;2023-08-07T04:45:54;2.78;;;1.80;;
4078;SDS011;2054;47.858;11.156;2023-08-07T04:48:21;3.90;;;1.85;;
4078;SDS011;2054;47.858;11.156;2023-08-07T04:50:50;2.00;;;1.70;;
4078;SDS011;2054;47.858;11.156;2023-08-07T04:53:17;2.45;;;1.60;;
4078;SDS011;2054;47.858;11.156;2023-08-07T04:55:44;2.08;;;1.40;;
4078;SDS011;2054;47.858;11.156;2023-08-07T04:58:12;2.35;;;1.70;;
4078;SDS011;2054;47.858;11.156;2023-08-07T05:00:39;2.63;;;1.60;;
4078;SDS011;2054;47.858;11.156;2023-08-07T05:03:07;2.55;;;1.77;;
4078;SDS011;2054;47.858;11.156;2023-08-07T05:05:34;1.88;;;1.50;;
4078;SDS011;2054;47.858;11.156;2023-08-07T05:08:01;2.75;;;1.52;;
4078;SDS011;2054;47.858;11.156;2023-08-07T05:10:28;2.10;;;1.42;;
4078;SDS011;2054;47.858;11.156;2023-08-07T05:12:55;6.32;;;1.65;;
4078;SDS011;2054;47.858;11.156;2023-08-07T05:15:22;3.15;;;1.58;;
4078;SDS011;2054;47.858;11.156;2023-08-07T05:17:50;3.75;;;1.60;;
4078;SDS011;2054;47.858;11.156;2023-08-07T05:20:18;2.65;;;1.55;;
4078;SDS011;2054;47.858;11.156;2023-08-07T05:22:45;2.55;;;1.90;;
4078;SDS011;2054;47.858;11.156;2023-08-07T05:25:12;4.57;;;1.50;;
4078;SDS011;2054;47.858;11.156;2023-08-07T05:27:40;2.65;;;1.60;;
4078;SDS011;2054;47.858;11.156;2023-08-07T05:30:08;1.85;;;1.58;;
4078;SDS011;2054;47.858;11.156;2023-08-07T05:32:35;2.97;;;1.52;;
4078;SDS011;2054;47.858;11.156;2023-08-07T05:35:04;2.10;;;1.48;;
4078;SDS011;2054;47.858;11.156;2023-08-07T05:37:33;1.38;;;1.27;;
4078;SDS011;2054;47.858;11.156;2023-08-07T05:40:01;3.33;;;1.67;;
4078;SDS011;2054;47.858;11.156;2023-08-07T05:42:29;3.25;;;1.50;;
4078;SDS011;2054;47.858;11.156;2023-08-07T05:44:56;1.70;;;1.50;;
4078;SDS011;2054;47.858;11.156;2023-08-07T05:47:23;1.85;;;1.60;;
4078;SDS011;2054;47.858;11.156;2023-08-07T05:49:50;5.47;;;1.60;;
4078;SDS011;2054;47.858;11.156;2023-08-07T05:52:17;2.92;;;1.60;;
4078;SDS011;2054;47.858;11.156;2023-08-07T05:54:46;7.05;;;1.40;;
4078;SDS011;2054;47.858;11.156;2023-08-07T05:57:13;1.75;;;1.30;;
4078;SDS011;2054;47.858;11.156;2023-08-07T05:59:40;3.22;;;1.88;;
4078;SDS011;2054;47.858;11.156;2023-08-07T06:02:07;1.40;;;1.30;;
4078;SDS011;2054;47.858;11.156;2023-08-07T06:04:36;2.25;;;1.83;;
4078;SDS011;2054;47.858;11.156;2023-08-07T06:07:03;2.35;;;1.70;;
4078;SDS011;2054;47.858;11.156;2023-08-07T06:09:30;1.73;;;1.25;;
4078;SDS011;2054;47.858;11.156;2023-08-07T06:11:59;4.80;;;1.80;;
4078;SDS011;2054;47.858;11.156;2023-08-07T06:14:26;1.88;;;1.42;;
4078;SDS011;2054;47.858;11.156;2023-08-07T06:16:53;3.42;;;1.27;;
4078;SDS011;2054;47.858;11.156;2023-08-07T06:19:23;1.95;;;1.50;;
4078;SDS011;2054;47.858;11.156;2023-08-07T06:21:52;3.05;;;1.48;;
4078;SDS011;2054;47.858;11.156;2023-08-07T06:24:19;2.03;;;1.48;;
4078;SDS011;2054;47.858;11.156;2023-08-07T06:26:47;3.13;;;1.52;;
4078;SDS011;2054;47.858;11.156;2023-08-07T06:29:17;5.05;;;1.45;;
4078;SDS011;2054;47.858;11.156;2023-08-07T06:31:44;2.42;;;1.65;;
4078;SDS011;2054;47.858;11.156;2023-08-07T06:34:11;2.55;;;1.70;;
4078;SDS011;2054;47.858;11.156;2023-08-07T06:36:37;2.15;;;1.77;;
4078;SDS011;2054;47.858;11.156;2023-08-07T06:39:04;2.33;;;1.58;;
4078;SDS011;2054;47.858;11.156;2023-08-07T06:41:31;1.52;;;1.40;;
4078;SDS011;2054;47.858;11.156;2023-08-07T06:43:58;5.82;;;1.90;;
4078;SDS011;2054;47.858;11.156;2023-08-07T06:46:26;1.65;;;1.48;;
4078;SDS011;2054;47.858;11.156;2023-08-07T06:48:53;1.75;;;1.50;;
4078;SDS011;2054;47.858;11.156;2023-08-07T06:51:20;1.85;;;1.50;;
4078;SDS011;2054;47.858;11.156;2023-08-07T06:53:47;3.40;;;1.45;;
4078;SDS011;2054;47.858;11.156;2023-08-07T06:56:14;2.45;;;1.30;;
4078;SDS011;2054;47.858;11.156;2023-08-07T06:58:41;3.22;;;1.70;;
4078;SDS011;2054;47.858;11.156;2023-08-07T07:01:08;2.20;;;1.50;;
4078;SDS011;2054;47.858;11.156;2023-08-07T07:03:36;3.90;;;1.55;;
4078;SDS011;2054;47.858;11.156;2023-08-07T07:06:03;1.58;;;1.33;;
4078;SDS011;2054;47.858;11.156;2023-08-07T07:08:30;1.65;;;1.23;;
4078;SDS011;2054;47.858;11.156;2023-08-07T07:10:58;2.13;;;1.50;;
4078;SDS011;2054;47.858;11.156;2023-08-07T07:13:25;1.45;;;1.13;;
4078;SDS011;2054;47.858;11.156;2023-08-07T07:15:54;3.65;;;1.30;;
4078;SDS011;2054;47.858;11.156;2023-08-07T07:18:21;2.75;;;1.60;;
4078;SDS011;2054;47.858;11.156;2023-08-07T07:20:55;3.00;;;1.80;;
4078;SDS011;2054;47.858;11.156;2023-08-07T07:23:23;1.58;;;1.30;;
4078;SDS011;2054;47.858;11.156;2023-08-07T07:25:50;2.85;;;1.42;;
4078;SDS011;2054;47.858;11.156;2023-08-07T07:28:17;1.55;;;1.25;;
4078;SDS011;2054;47.858;11.156;2023-08-07T07:30:44;4.70;;;1.52;;
4078;SDS011;2054;47.858;11.156;2023-08-07T07:33:11;3.05;;;1.48;;
4078;SDS011;2054;47.858;11.156;2023-08-07T07:35:39;1.60;;;1.50;;
4078;SDS011;2054;47.858;11.156;2023-08-07T07:38:07;3.33;;;1.30;;
4078;SDS011;2054;47.858;11.156;2023-08-07T07:40:33;1.98;;;1.58;;
4078;SDS011;2054;47.858;11.156;2023-08-07T07:43:02;2.42;;;1.45;;
4078;SDS011;2054;47.858;11.156;2023-08-07T07:45:29;1.40;;;1.00;;
4078;SDS011;2054;47.858;11.156;2023-08-07T07:47:58;1.40;;;1.13;;
4078;SDS011;2054;47.858;11.156;2023-08-07T07:50:25;2.33;;;1.30;;
4078;SDS011;2054;47.858;11.156;2023-08-07T07:52:52;1.52;;;1.42;;
4078;SDS011;2054;47.858;11.156;2023-08-07T07:55:20;2.42;;;1.60;;
4078;SDS011;2054;47.858;11.156;2023-08-07T07:57:47;3.92;;;1.60;;
4078;SDS011;2054;47.858;11.156;2023-08-07T08:00:15;2.30;;;1.40;;
4078;SDS011;2054;47.858;11.156;2023-08-07T08:02:43;2.08;;;1.35;;
4078;SDS011;2054;47.858;11.156;2023-08-07T08:05:10;1.67;;;1.35;;
4078;SDS011;2054;47.858;11.156;2023-08-07T08:07:37;2.17;;;1.60;;
4078;SDS011;2054;47.858;11.156;2023-08-07T08:10:06;2.60;;;1.65;;
4078;SDS011;2054;47.858;11.156;2023-08-07T08:12:35;2.67;;;1.50;;
4078;SDS011;2054;47.858;11.156;2023-08-07T08:15:02;1.83;;;1.52;;
4078;SDS011;2054;47.858;11.156;2023-08-07T08:17:30;2.15;;;1.40;;
4078;SDS011;2054;47.858;11.156;2023-08-07T08:19:57;1.90;;;1.40;;
4078;SDS011;2054;47.858;11.156;2023-08-07T08:22:24;1.85;;;1.30;;
4078;SDS011;2054;47.858;11.156;2023-08-07T08:24:51;2.53;;;1.60;;
4078;SDS011;2054;47.858;11.156;2023-08-07T08:27:18;1.90;;;1.42;;
4078;SDS011;2054;47.858;11.156;2023-08-07T08:29:47;1.55;;;1.45;;
4078;SDS011;2054;47.858;11.156;2023-08-07T08:32:14;2.50;;;1.30;;
4078;SDS011;2054;47.858;11.156;2023-08-07T08:34:41;1.60;;;1.30;;
4078;SDS011;2054;47.858;11.156;2023-08-07T08:37:08;1.88;;;1.35;;
4078;SDS011;2054;47.858;11.156;2023-08-07T08:39:36;2.42;;;1.27;;
4078;SDS011;2054;47.858;11.156;2023-08-07T08:42:03;1.60;;;1.48;;
4078;SDS011;2054;47.858;11.156;2023-08-07T08:44:31;2.05;;;1.50;;
4078;SDS011;2054;47.858;11.156;2023-08-07T08:47:04;5.65;;;1.83;;
4078;SDS011;2054;47.858;11.156;2023-08-07T08:49:32;1.50;;;1.40;;
4078;SDS011;2054;47.858;11.156;2023-08-07T08:52:02;1.30;;;1.20;;
4078;SDS011;2054;47.858;11.156;2023-08-07T08:54:30;4.05;;;1.70;;
4078;SDS011;2054;47.858;11.156;2023-08-07T08:56:58;1.60;;;1.50;;
4078;SDS011;2054;47.858;11.156;2023-08-07T08:59:26;4.32;;;1.55;;
4078;SDS011;2054;47.858;11.156;2023-08-07T09:01:53;1.67;;;1.45;;
4078;SDS011;2054;47.858;11.156;2023-08-07T09:04:22;1.40;;;1.30;;
4078;SDS011;2054;47.858;11.156;2023-08-07T09:06:49;1.98;;;1.52;;
4078;SDS011;2054;47.858;11.156;2023-08-07T09:09:17;1.33;;;1.23;;
4078;SDS011;2054;47.858;11.156;2023-08-07T09:11:46;1.55;;;1.38;;
4078;SDS011;2054;47.858;11.156;2023-08-07T09:14:15;2.05;;;1.20;;
4078;SDS011;2054;47.858;11.156;2023-08-07T09:16:43;2.95;;;1.27;;
4078;SDS011;2054;47.858;11.156;2023-08-07T09:19:12;1.83;;;1.23;;
4078;SDS011;2054;47.858;11.156;2023-08-07T09:21:40;1.42;;;1.10;;
4078;SDS011;2054;47.858;11.156;2023-08-07T09:24:07;1.48;;;1.33;;
4078;SDS011;2054;47.858;11.156;2023-08-07T09:26:34;1.80;;;1.38;;
4078;SDS011;2054;47.858;11.156;2023-08-07T09:29:02;3.72;;;1.30;;
4078;SDS011;2054;47.858;11.156;2023-08-07T09:31:29;1.30;;;1.20;;
4078;SDS011;2054;47.858;11.156;2023-08-07T09:34:00;1.25;;;1.15;;
4078;SDS011;2054;47.858;11.156;2023-08-07T09:36:29;1.52;;;1.40;;
4078;SDS011;2054;47.858;11.156;2023-08-07T09:39:01;1.38;;;1.13;;
4078;SDS011;2054;47.858;11.156;2023-08-07T09:41:29;1.45;;;1.30;;
4078;SDS011;2054;47.858;11.156;2023-08-07T09:43:56;2.72;;;1.40;;
4078;SDS011;2054;47.858;11.156;2023-08-07T09:46:25;1.65;;;1.05;;
4078;SDS011;2054;47.858;11.156;2023-08-07T09:48:52;2.05;;;1.30;;
4078;SDS011;2054;47.858;11.156;2023-08-07T09:51:24;3.22;;;1.60;;
4078;SDS011;2054;47.858;11.156;2023-08-07T09:53:52;2.10;;;1.30;;
4078;SDS011;2054;47.858;11.156;2023-08-07T09:56:20;2.75;;;1.38;;
4078;SDS011;2054;47.858;11.156;2023-08-07T09:58:49;1.77;;;1.30;;
4078;SDS011;2054;47.858;11.156;2023-08-07T10:01:16;1.55;;;1.40;;
4078;SDS011;2054;47.858;11.156;2023-08-07T10:03:44;1.05;;;1.02;;
4078;SDS011;2054;47.858;11.156;2023-08-07T10:06:11;1.08;;;1.02;;
4078;SDS011;2054;47.858;11.156;2023-08-07T10:08:39;2.20;;;1.38;;
4078;SDS011;2054;47.858;11.156;2023-08-07T10:11:08;4.00;;;1.30;;
4078;SDS011;2054;47.858;11.156;2023-08-07T10:13:37;1.30;;;1.20;;
4078;SDS011;2054;47.858;11.156;2023-08-07T10:16:05;2.05;;;1.60;;
4078;SDS011;2054;47.858;11.156;2023-08-07T10:18:32;2.47;;;1.35;;
4078;SDS011;2054;47.858;11.156;2023-08-07T10:21:01;2.70;;;1.23;;
4078;SDS011;2054;47.858;11.156;2023-08-07T10:23:28;2.05;;;1.20;;
4078;SDS011;2054;47.858;11.156;2023-08-07T10:25:56;2.10;;;1.30;;
4078;SDS011;2054;47.858;11.156;2023-08-07T10:28:24;2.53;;;1.30;;
4078;SDS011;2054;47.858;11.156;2023-08-07T10:30:54;1.40;;;1.30;;
4078;SDS011;2054;47.858;11.156;2023-08-07T10:33:21;1.13;;;1.10;;
4078;SDS011;2054;47.858;11.156;2023-08-07T10:35:51;1.45;;;1.35;;
4078;SDS011;2054;47.858;11.156;2023-08-07T10:38:19;1.40;;;1.10;;
4078;SDS011;2054;47.858;11.156;2023-08-07T10:40:59;1.20;;;1.10;;
4078;SDS011;2054;47.858;11.156;2023-08-07T10:43:27;1.30;;;1.00;;
4078;SDS011;2054;47.858;11.156;2023-08-07T10:45:55;1.10;;;1.00;;
4078;SDS011;2054;47.858;11.156;2023-08-07T10:48:27;1.90;;;1.00;;
4078;SDS011;2054;47.858;11.156;2023-08-07T10:50:56;1.90;;;1.00;;
4078;SDS011;2054;47.858;11.156;2023-08-07T10:53:31;2.42;;;1.30;;
4078;SDS011;2054;47.858;11.156;2023-08-07T10:56:00;2.30;;;1.17;;
4078;SDS011;2054;47.858;11.156;2023-08-07T10:58:29;0.98;;;0.98;;
4078;SDS011;2054;47.858;11.156;2023-08-07T11:01:17;1.00;;;1.00;;
4078;SDS011;2054;47.858;11.156;2023-08-07T11:03:48;1.20;;;1.10;;
4078;SDS011;2054;47.858;11.156;2023-08-07T11:06:15;2.38;;;0.80;;
4078;SDS011;2054;47.858;11.156;2023-08-07T11:08:43;1.15;;;0.90;;
4078;SDS011;2054;47.858;11.156;2023-08-07T11:11:10;0.80;;;0.80;;
4078;SDS011;2054;47.858;11.156;2023-08-07T11:13:38;2.80;;;0.88;;
4078;SDS011;2054;47.858;11.156;2023-08-07T11:16:05;0.77;;;0.70;;
4078;SDS011;2054;47.858;11.156;2023-08-07T11:18:34;0.80;;;0.80;;
4078;SDS011;2054;47.858;11.156;2023-08-07T11:21:03;1.05;;;0.95;;
4078;SDS011;2054;47.858;11.156;2023-08-07T11:23:33;2.25;;;1.20;;
4078;SDS011;2054;47.858;11.156;2023-08-07T11:26:00;1.27;;;1.10;;
4078;SDS011;2054;47.858;11.156;2023-08-07T11:28:29;0.80;;;0.80;;
4078;SDS011;2054;47.858;11.156;2023-08-07T11:30:56;0.90;;;0.90;;
4078;SDS011;2054;47.858;11.156;2023-08-07T11:33:24;3.28;;;1.23;;
4078;SDS011;2054;47.858;11.156;2023-08-07T11:35:53;1.38;;;0.90;;
4078;SDS011;2054;47.858;11.156;2023-08-07T11:38:30;1.20;;;1.10;;
4078;SDS011;2054;47.858;11.156;2023-08-07T11:40:58;1.42;;;1.00;;
4078;SDS011;2054;47.858;11.156;2023-08-07T11:43:27;1.20;;;0.93;;
4078;SDS011;2054;47.858;11.156;2023-08-07T11:45:55;1.10;;;0.82;;
4078;SDS011;2054;47.858;11.156;2023-08-07T11:48:23;1.10;;;1.00;;
4078;SDS011;2054;47.858;11.156;2023-08-07T11:50:52;0.90;;;0.82;;
4078;SDS011;2054;47.858;11.156;2023-08-07T11:53:20;1.00;;;1.00;;
4078;SDS011;2054;47.858;11.156;2023-08-07T11:55:51;0.90;;;0.90;;
4078;SDS011;2054;47.858;11.156;2023-08-07T11:58:19;1.00;;;1.00;;
4078;SDS011;2054;47.858;11.156;2023-08-07T12:00:47;1.13;;;1.02;;
4078;SDS011;2054;47.858;11.156;2023-08-07T12:03:24;1.25;;;0.90;;
4078;SDS011;2054;47.858;11.156;2023-08-07T12:05:54;2.30;;;0.90;;
4078;SDS011;2054;47.858;11.156;2023-08-07T12:08:22;1.15;;;1.05;;
4078;SDS011;2054;47.858;11.156;2023-08-07T12:10:50;1.75;;;1.17;;
4078;SDS011;2054;47.858;11.156;2023-08-07T12:13:19;1.50;;;1.02;;
4078;SDS011;2054;47.858;11.156;2023-08-07T12:15:50;0.80;;;0.80;;
4078;SDS011;2054;47.858;11.156;2023-08-07T12:18:17;2.03;;;0.90;;
4078;SDS011;2054;47.858;11.156;2023-08-07T12:20:45;1.35;;;0.90;;
4078;SDS011;2054;47.858;11.156;2023-08-07T12:23:15;2.75;;;0.80;;
4078;SDS011;2054;47.858;11.156;2023-08-07T12:25:42;0.80;;;0.75;;
4078;SDS011;2054;47.858;11.156;2023-08-07T12:28:10;0.68;;;0.68;;
4078;SDS011;2054;47.858;11.156;2023-08-07T12:30:37;1.00;;;1.00;;
4078;SDS011;2054;47.858;11.156;2023-08-07T12:33:05;1.77;;;1.20;;
4078;SDS011;2054;47.858;11.156;2023-08-07T12:35:32;1.13;;;1.10;;
4078;SDS011;2054;47.858;11.156;2023-08-07T12:38:00;0.90;;;0.90;;
4078;SDS011;2054;47.858;11.156;2023-08-07T12:40:31;1.73;;;1.27;;
4078;SDS011;2054;47.858;11.156;2023-08-07T12:42:58;1.27;;;1.10;;
4078;SDS011;2054;47.858;11.156;2023-08-07T12:45:26;1.40;;;1.10;;
4078;SDS011;2054;47.858;11.156;2023-08-07T12:47:53;2.40;;;1.20;;
4078;SDS011;2054;47.858;11.156;2023-08-07T12:50:20;1.67;;;0.93;;
4078;SDS011;2054;47.858;11.156;2023-08-07T12:52:47;1.55;;;1.00;;
4078;SDS011;2054;47.858;11.156;2023-08-07T12:55:14;1.30;;;1.20;;
4078;SDS011;2054;47.858;11.156;2023-08-07T12:57:43;1.73;;;1.10;;
4078;SDS011;2054;47.858;11.156;2023-08-07T13:00:11;2.83;;;1.00;;
4078;SDS011;2054;47.858;11.156;2023-08-07T13:02:40;0.82;;;0.82;;
4078;SDS011;2054;47.858;11.156;2023-08-07T13:05:08;1.80;;;1.02;;
4078;SDS011;2054;47.858;11.156;2023-08-07T13:07:35;1.50;;;1.10;;
4078;SDS011;2054;47.858;11.156;2023-08-07T13:10:04;0.90;;;0.90;;
4078;SDS011;2054;47.858;11.156;2023-08-07T13:12:33;1.08;;;1.08;;
4078;SDS011;2054;47.858;11.156;2023-08-07T13:15:01;0.90;;;0.90;;
4078;SDS011;2054;47.858;11.156;2023-08-07T13:17:29;0.90;;;0.90;;
4078;SDS011;2054;47.858;11.156;2023-08-07T13:19:57;1.60;;;1.00;;
4078;SDS011;2054;47.858;11.156;2023-08-07T13:22:25;2.47;;;1.00;;
4078;SDS011;2054;47.858;11.156;2023-08-07T13:24:53;1.17;;;1.08;;
4078;SDS011;2054;47.858;11.156;2023-08-07T13:27:20;1.50;;;0.90;;
4078;SDS011;2054;47.858;11.156;2023-08-07T13:29:47;1.40;;;1.00;;
4078;SDS011;2054;47.858;11.156;2023-08-07T13:32:16;0.80;;;0.80;;
4078;SDS011;2054;47.858;11.156;2023-08-07T13:34:45;2.00;;;1.10;;
4078;SDS011;2054;47.858;11.156;2023-08-07T13:37:13;1.13;;;1.02;;
4078;SDS011;2054;47.858;11.156;2023-08-07T13:39:40;1.10;;;1.10;;
4078;SDS011;2054;47.858;11.156;2023-08-07T13:42:08;1.25;;;0.98;;
4078;SDS011;2054;47.858;11.156;2023-08-07T13:44:35;0.98;;;0.95;;
4078;SDS011;2054;47.858;11.156;2023-08-07T13:47:03;1.60;;;1.17;;
4078;SDS011;2054;47.858;11.156;2023-08-07T13:49:32;1.20;;;1.10;;
4078;SDS011;2054;47.858;11.156;2023-08-07T13:51:59;1.63;;;0.98;;
4078;SDS011;2054;47.858;11.156;2023-08-07T13:54:26;1.40;;;1.25;;
4078;SDS011;2054;47.858;11.156;2023-08-07T13:56:54;0.93;;;0.75;;
4078;SDS011;2054;47.858;11.156;2023-08-07T13:59:21;1.30;;;1.20;;
4078;SDS011;2054;47.858;11.156;2023-08-07T14:01:48;1.08;;;1.00;;
4078;SDS011;2054;47.858;11.156;2023-08-07T14:04:17;1.35;;;1.15;;
4078;SDS011;2054;47.858;11.156;2023-08-07T14:06:47;1.10;;;1.00;;
4078;SDS011;2054;47.858;11.156;2023-08-07T14:09:14;2.00;;;0.80;;
4078;SDS011;2054;47.858;11.156;2023-08-07T14:11:43;1.30;;;1.20;;
4078;SDS011;2054;47.858;11.156;2023-08-07T14:14:10;0.90;;;0.90;;
4078;SDS011;2054;47.858;11.156;2023-08-07T14:16:37;1.88;;;1.10;;
4078;SDS011;2054;47.858;11.156;2023-08-07T14:19:05;0.88;;;0.80;;
4078;SDS011;2054;47.858;11.156;2023-08-07T14:21:32;1.45;;;1.08;;
4078;SDS011;2054;47.858;11.156;2023-08-07T14:24:01;1.33;;;0.95;;
4078;SDS011;2054;47.858;11.156;2023-08-07T14:26:29;1.20;;;1.10;;
4078;SDS011;2054;47.858;11.156;2023-08-07T14:28:56;0.80;;;0.80;;
4078;SDS011;2054;47.858;11.156;2023-08-07T14:31:23;0.73;;;0.73;;
4078;SDS011;2054;47.858;11.156;2023-08-07T14:33:51;1.20;;;0.93;;
4078;SDS011;2054;47.858;11.156;2023-08-07T14:36:18;0.93;;;0.88;;
4078;SDS011;2054;47.858;11.156;2023-08-07T14:38:45;0.90;;;0.90;;
4078;SDS011;2054;47.858;11.156;2023-08-07T14:41:14;1.02;;;0.93;;
4078;SDS011;2054;47.858;11.156;2023-08-07T14:43:41;0.70;;;0.70;;
4078;SDS011;2054;47.858;11.156;2023-08-07T14:46:08;1.95;;;1.23;;
4078;SDS011;2054;47.858;11.156;2023-08-07T14:48:36;1.50;;;1.10;;
4078;SDS011;2054;47.858;11.156;2023-08-07T14:51:03;0.80;;;0.80;;
4078;SDS011;2054;47.858;11.156;2023-08-07T14:53:32;0.95;;;0.75;;
4078;SDS011;2054;47.858;11.156;2023-08-07T14:56:00;1.45;;;0.90;;
4078;SDS011;2054;47.858;11.156;2023-08-07T14:58:29;1.42;;;1.00;;
4078;SDS011;2054;47.858;11.156;2023-08-07T15:00:57;1.02;;;0.90;;
4078;SDS011;2054;47.858;11.156;2023-08-07T15:03:25;1.00;;;0.95;;
4078;SDS011;2054;47.858;11.156;2023-08-07T15:05:52;0.80;;;0.80;;
4078;SDS011;2054;47.858;11.156;2023-08-07T15:08:19;1.05;;;0.90;;
4078;SDS011;2054;47.858;11.156;2023-08-07T15:10:46;1.50;;;1.10;;
4078;SDS011;2054;47.858;11.156;2023-08-07T15:13:14;1.67;;;1.10;;
4078;SDS011;2054;47.858;11.156;2023-08-07T15:15:43;1.05;;;1.00;;
4078;SDS011;2054;47.858;11.156;2023-08-07T15:18:11;3.17;;;1.10;;
4078;SDS011;2054;47.858;11.156;2023-08-07T15:20:38;1.52;;;1.10;;
4078;SDS011;2054;47.858;11.156;2023-08-07T15:23:05;3.33;;;1.05;;
4078;SDS011;2054;47.858;11.156;2023-08-07T15:25:32;1.15;;;0.93;;
4078;SDS011;2054;47.858;11.156;2023-08-07T15:28:00;1.70;;;1.42;;
4078;SDS011;2054;47.858;11.156;2023-08-07T15:30:29;2.67;;;1.20;;
4078;SDS011;2054;47.858;11.156;2023-08-07T15:32:57;1.30;;;1.20;;
4078;SDS011;2054;47.858;11.156;2023-08-07T15:35:24;1.52;;;1.08;;
4078;SDS011;2054;47.858;11.156;2023-08-07T15:37:52;1.42;;;1.33;;
4078;SDS011;2054;47.858;11.156;2023-08-07T15:40:19;1.67;;;1.20;;
4078;SDS011;2054;47.858;11.156;2023-08-07T15:42:46;2.40;;;1.10;;
4078;SDS011;2054;47.858;11.156;2023-08-07T15:45:14;1.20;;;1.10;;
4078;SDS011;2054;47.858;11.156;2023-08-07T15:50:46;1.05;;;0.95;;
4078;SDS011;2054;47.858;11.156;2023-08-07T15:53:14;2.20;;;1.40;;
4078;SDS011;2054;47.858;11.156;2023-08-07T15:55:41;0.90;;;0.90;;
4078;SDS011;2054;47.858;11.156;2023-08-07T15:58:08;0.82;;;0.82;;
4078;SDS011;2054;47.858;11.156;2023-08-07T16:00:35;1.55;;;1.30;;
4078;SDS011;2054;47.858;11.156;2023-08-07T16:03:04;0.98;;;0.98;;
4078;SDS011;2054;47.858;11.156;2023-08-07T16:05:33;1.65;;;1.10;;
4078;SDS011;2054;47.858;11.156;2023-08-07T16:08:02;1.13;;;1.00;;
4078;SDS011;2054;47.858;11.156;2023-08-07T16:10:33;1.50;;;1.40;;
4078;SDS011;2054;47.858;11.156;2023-08-07T16:13:01;1.08;;;1.08;;
4078;SDS011;2054;47.858;11.156;2023-08-07T16:15:31;1.25;;;1.17;;
4078;SDS011;2054;47.858;11.156;2023-08-07T16:18:02;1.27;;;1.00;;
4078;SDS011;2054;47.858;11.156;2023-08-07T16:20:33;1.33;;;1.00;;
4078;SDS011;2054;47.858;11.156;2023-08-07T16:23:07;1.67;;;1.10;;
4078;SDS011;2054;47.858;11.156;2023-08-07T16:25:34;2.35;;;1.10;;
4078;SDS011;2054;47.858;11.156;2023-08-07T16:28:05;2.15;;;1.35;;
4078;SDS011;2054;47.858;11.156;2023-08-07T16:30:33;1.27;;;0.95;;
4078;SDS011;2054;47.858;11.156;2023-08-07T16:33:01;1.67;;;1.17;;
4078;SDS011;2054;47.858;11.156;2023-08-07T16:35:28;1.98;;;1.20;;
4078;SDS011;2054;47.858;11.156;2023-08-07T16:37:55;2.90;;;1.77;;
4078;SDS011;2054;47.858;11.156;2023-08-07T16:40:24;3.45;;;1.13;;
4078;SDS011;2054;47.858;11.156;2023-08-07T16:42:51;1.38;;;1.25;;
4078;SDS011;2054;47.858;11.156;2023-08-07T16:45:20;1.48;;;1.00;;
4078;SDS011;2054;47.858;11.156;2023-08-07T16:47:48;1.30;;;1.20;;
4078;SDS011;2054;47.858;11.156;2023-08-07T16:50:16;1.30;;;1.20;;
4078;SDS011;2054;47.858;11.156;2023-08-07T16:52:43;1.08;;;1.02;;
4078;SDS011;2054;47.858;11.156;2023-08-07T16:55:10;1.65;;;1.27;;
4078;SDS011;2054;47.858;11.156;2023-08-07T16:57:39;0.88;;;0.88;;
4078;SDS011;2054;47.858;11.156;2023-08-07T17:00:06;1.10;;;0.95;;
4078;SDS011;2054;47.858;11.156;2023-08-07T17:02:35;1.27;;;1.17;;
4078;SDS011;2054;47.858;11.156;2023-08-07T17:05:03;1.17;;;1.08;;
4078;SDS011;2054;47.858;11.156;2023-08-07T17:07:30;0.90;;;0.90;;
4078;SDS011;2054;47.858;11.156;2023-08-07T17:09:57;1.02;;;1.00;;
4078;SDS011;2054;47.858;11.156;2023-08-07T17:12:25;1.52;;;0.88;;
4078;SDS011;2054;47.858;11.156;2023-08-07T17:14:53;1.20;;;1.10;;
4078;SDS011;2054;47.858;11.156;2023-08-07T17:17:20;1.65;;;1.13;;
4078;SDS011;2054;47.858;11.156;2023-08-07T17:19:48;1.15;;;1.02;;
4078;SDS011;2054;47.858;11.156;2023-08-07T17:22:15;1.35;;;1.20;;
4078;SDS011;2054;47.858;11.156;2023-08-07T17:24:43;1.20;;;1.10;;
4078;SDS011;2054;47.858;11.156;2023-08-07T17:27:10;0.98;;;0.98;;
4078;SDS011;2054;47.858;11.156;2023-08-07T17:29:37;1.50;;;1.40;;
4078;SDS011;2054;47.858;11.156;2023-08-07T17:32:06;1.55;;;1.42;;
4078;SDS011;2054;47.858;11.156;2023-08-07T17:34:33;1.10;;;1.00;;
4078;SDS011;2054;47.858;11.156;2023-08-07T17:37:00;1.15;;;1.05;;
4078;SDS011;2054;47.858;11.156;2023-08-07T17:39:27;1.40;;;1.10;;
4078;SDS011;2054;47.858;11.156;2023-08-07T17:41:54;1.15;;;0.98;;
4078;SDS011;2054;47.858;11.156;2023-08-07T17:44:21;2.10;;;1.35;;
4078;SDS011;2054;47.858;11.156;2023-08-07T17:46:48;1.30;;;1.20;;
4078;SDS011;2054;47.858;11.156;2023-08-07T17:49:16;1.40;;;1.10;;
4078;SDS011;2054;47.858;11.156;2023-08-07T17:51:44;1.70;;;0.98;;